Odessa, Ukraine
Current Conditions -  °F | °C
As of 3:30 PM on Saturday 25 Oct 2014 (Local Time) from UKOO Reporting Station
Broken Clouds Broken Clouds  
Wind Chill: 29°   Ceiling: 2100
Heat Index: 39°   Visibility: 6mi
Dew Point: 28°   Wind: 22mph
Humidity: 65%   Direction: 60°ENE
Pressure: 30.36"   Gusts: NA
Location:  46.47°N, 30.74°E
Report Text: UKOO 251230Z 06010MPS 020V090 9999 BKN021 04/M02 Q1028 34090060 NOSIG
Loading
Personal Weather Stations






























Interactive Weather Map
Tropical Storm Tracking
New forecast layout! Learn more

10-Day Weather Forecast

Advertisements
Track Severe Weather on mobile